Time;durP1;ratioP1;P1;durP2;ratioP2;P2;SDS_P1;SDS_P2;PMS_P1;PMS_P2;Temp;Humidity;BMP_temperature;BMP_pressure;BME280_temperature;BME280_humidity;BME280_pressure;Samples;Min_cycle;Max_cycle;Signal;HPM_P1;HPM_P2
2021/06/27 00:02:22;;;;;;;16.80;15.30;;;;;;;;;;5090840;28;20048;-53
2021/06/27 00:04:47;;;;;;;15.82;14.45;;;;;;;;;;5090024;28;20096;-55
2021/06/27 00:07:12;;;;;;;15.80;14.50;;;;;;;;;;5073945;28;20070;-54
2021/06/27 00:09:40;;;;;;;15.55;14.15;;;;;;;;;;5074000;28;20060;-54
2021/06/27 00:12:05;;;;;;;16.00;14.60;;;;;;;;;;5077237;28;20013;-53
2021/06/27 00:14:31;;;;;;;15.02;13.73;;;;;;;;;;5073918;28;20034;-52
2021/06/27 00:16:56;;;;;;;14.15;12.88;;;;;;;;;;5084623;28;20462;-54
2021/06/27 00:19:21;;;;;;;14.98;13.57;;;;;;;;;;5080842;28;20028;-54
2021/06/27 00:21:47;;;;;;;15.18;13.88;;;;;;;;;;5082638;28;20013;-54
2021/06/27 00:24:12;;;;;;;15.25;13.80;;;;;;;;;;5090467;28;20023;-52
2021/06/27 00:26:38;;;;;;;15.00;13.55;;;;;;;;;;5093663;28;20062;-54
2021/06/27 00:29:03;;;;;;;13.80;12.55;;;;;;;;;;5093209;28;20051;-54
2021/06/27 00:31:28;;;;;;;14.02;12.73;;;;;;;;;;5086883;28;20020;-54
2021/06/27 00:33:53;;;;;;;13.77;12.48;;;;;;;;;;5077818;28;20029;-54
2021/06/27 00:36:18;;;;;;;14.15;12.90;;;;;;;;;;5076577;28;20062;-51
2021/06/27 00:38:44;;;;;;;14.73;13.32;;;;;;;;;;5088160;28;20024;-55
2021/06/27 00:41:09;;;;;;;14.20;13.00;;;;;;;;;;5072475;28;20464;-53
2021/06/27 00:43:34;;;;;;;15.38;13.88;;;;;;;;;;5094012;28;20016;-54
2021/06/27 00:46:00;;;;;;;14.63;13.23;;;;;;;;;;5090912;28;20432;-54
2021/06/27 00:48:25;;;;;;;14.13;12.82;;;;;;;;;;5074175;28;20032;-55
2021/06/27 00:50:52;;;;;;;14.32;13.00;;;;;;;;;;5069125;28;20081;-55
2021/06/27 00:53:17;;;;;;;14.43;13.02;;;;;;;;;;5093192;28;20099;-57
2021/06/27 00:55:43;;;;;;;13.93;12.75;;;;;;;;;;5093505;28;20153;-56
2021/06/27 00:58:09;;;;;;;13.75;12.35;;;;;;;;;;5075343;28;20495;-54
2021/06/27 01:00:35;;;;;;;14.50;13.10;;;;;;;;;;5077449;28;20025;-54
2021/06/27 01:03:01;;;;;;;13.40;12.13;;;;;;;;;;5074288;28;20053;-55
2021/06/27 01:05:28;;;;;;;13.95;12.55;;;;;;;;;;5090840;28;20031;-53
2021/06/27 01:07:54;;;;;;;15.27;13.95;;;;;;;;;;5080391;28;20044;-51
2021/06/27 01:10:19;;;;;;;14.95;13.45;;;;;;;;;;5074138;28;20024;-53
2021/06/27 01:12:45;;;;;;;15.13;13.60;;;;;;;;;;5069928;28;20020;-55
2021/06/27 01:15:11;;;;;;;14.38;12.93;;;;;;;;;;5084158;28;20026;-53
2021/06/27 01:17:41;;;;;;;13.65;12.40;;;;;;;;;;5092616;28;20027;-54
2021/06/27 01:20:07;;;;;;;15.25;13.85;;;;;;;;;;5074782;28;20020;-54
2021/06/27 01:22:32;;;;;;;14.75;13.40;;;;;;;;;;5070963;28;20025;-54
2021/06/27 01:24:57;;;;;;;15.18;13.68;;;;;;;;;;5085208;28;20024;-54
2021/06/27 01:27:23;;;;;;;13.32;12.23;;;;;;;;;;5092402;28;20024;-54
2021/06/27 01:29:48;;;;;;;14.70;13.35;;;;;;;;;;5091994;28;20110;-51
2021/06/27 01:32:14;;;;;;;14.82;13.32;;;;;;;;;;5080264;28;20089;-55
2021/06/27 01:34:39;;;;;;;14.52;13.23;;;;;;;;;;5072390;28;20020;-53
2021/06/27 01:37:05;;;;;;;14.77;13.48;;;;;;;;;;5074009;28;20493;-54
2021/06/27 01:39:31;;;;;;;15.95;14.43;;;;;;;;;;5075357;28;20029;-52
2021/06/27 01:41:56;;;;;;;14.73;13.32;;;;;;;;;;5080571;28;20043;-53
2021/06/27 01:44:22;;;;;;;16.10;14.57;;;;;;;;;;5092084;28;20114;-51
2021/06/27 01:46:47;;;;;;;15.52;14.23;;;;;;;;;;5091891;28;20016;-54
2021/06/27 01:49:12;;;;;;;15.85;14.35;;;;;;;;;;5089980;28;20027;-55
2021/06/27 01:51:39;;;;;;;15.80;14.30;;;;;;;;;;5069457;28;20066;-55
2021/06/27 01:54:04;;;;;;;15.63;14.18;;;;;;;;;;5072380;28;20061;-54
2021/06/27 01:56:29;;;;;;;15.80;14.27;;;;;;;;;;5077314;28;20021;-56
2021/06/27 01:58:57;;;;;;;15.10;13.68;;;;;;;;;;5072084;28;20027;-52
2021/06/27 02:01:27;;;;;;;15.75;14.27;;;;;;;;;;5089032;28;20048;-55
2021/06/27 02:03:53;;;;;;;15.50;14.00;;;;;;;;;;5090245;28;20020;-55
2021/06/27 02:06:19;;;;;;;15.15;13.80;;;;;;;;;;5090968;28;20436;-56
2021/06/27 02:08:44;;;;;;;16.80;15.30;;;;;;;;;;5074267;28;20429;-54
2021/06/27 02:11:11;;;;;;;16.38;14.85;;;;;;;;;;5075419;28;20024;-51
2021/06/27 02:13:36;;;;;;;15.30;13.90;;;;;;;;;;5072924;28;20021;-52
2021/06/27 02:16:02;;;;;;;15.80;14.40;;;;;;;;;;5076568;28;20035;-54
2021/06/27 02:18:29;;;;;;;16.35;14.75;;;;;;;;;;5082609;28;20020;-56
2021/06/27 02:20:55;;;;;;;14.50;13.30;;;;;;;;;;5086838;28;20414;-54
2021/06/27 02:23:21;;;;;;;15.07;13.77;;;;;;;;;;5087015;28;20031;-55
2021/06/27 02:25:46;;;;;;;14.80;13.40;;;;;;;;;;5083347;28;20376;-54
2021/06/27 02:28:11;;;;;;;15.90;14.30;;;;;;;;;;5076073;28;20384;-54
2021/06/27 02:30:37;;;;;;;13.98;12.77;;;;;;;;;;5072662;28;20032;-52
2021/06/27 02:33:03;;;;;;;14.32;13.13;;;;;;;;;;5075551;28;20025;-53
2021/06/27 02:35:29;;;;;;;17.50;15.80;;;;;;;;;;5079432;28;20069;-56
2021/06/27 02:37:54;;;;;;;16.00;14.50;;;;;;;;;;5089976;28;20479;-56
2021/06/27 02:40:19;;;;;;;17.05;15.45;;;;;;;;;;5088472;28;20032;-54
2021/06/27 02:42:45;;;;;;;17.35;15.73;;;;;;;;;;5093973;28;20091;-54
2021/06/27 02:45:11;;;;;;;17.98;16.27;;;;;;;;;;5095308;28;20020;-55
2021/06/27 02:47:36;;;;;;;17.30;15.70;;;;;;;;;;5095556;28;20370;-53
2021/06/27 02:50:03;;;;;;;17.55;15.75;;;;;;;;;;5094956;28;20024;-55
2021/06/27 02:52:28;;;;;;;18.77;16.98;;;;;;;;;;5090828;28;20096;-54
2021/06/27 02:54:53;;;;;;;17.98;16.17;;;;;;;;;;5091408;28;20464;-56
2021/06/27 02:57:18;;;;;;;17.85;16.30;;;;;;;;;;5075410;28;20020;-56
2021/06/27 02:59:44;;;;;;;18.20;16.52;;;;;;;;;;5078618;28;20028;-56
2021/06/27 03:02:09;;;;;;;18.20;16.55;;;;;;;;;;5072511;28;20055;-55
2021/06/27 03:04:34;;;;;;;16.60;15.00;;;;;;;;;;5075218;28;20467;-56
2021/06/27 03:06:59;;;;;;;16.30;14.77;;;;;;;;;;5078908;28;20016;-54
2021/06/27 03:09:25;;;;;;;16.55;15.05;;;;;;;;;;5093305;28;20520;-56
2021/06/27 03:11:50;;;;;;;17.15;15.57;;;;;;;;;;5092347;28;20016;-55
2021/06/27 03:14:15;;;;;;;16.00;14.40;;;;;;;;;;5093924;28;20027;-55
2021/06/27 03:16:40;;;;;;;15.90;14.02;;;;;;;;;;5083165;28;20502;-54
2021/06/27 03:19:06;;;;;;;15.35;13.80;;;;;;;;;;5077839;28;20104;-55
2021/06/27 03:21:31;;;;;;;15.65;14.05;;;;;;;;;;5077126;28;20103;-53
2021/06/27 03:23:56;;;;;;;15.45;14.05;;;;;;;;;;5091929;28;20017;-53
2021/06/27 03:26:21;;;;;;;15.70;14.30;;;;;;;;;;5094480;28;20065;-52
2021/06/27 03:28:51;;;;;;;15.43;13.93;;;;;;;;;;5094956;28;20024;-56
2021/06/27 03:31:16;;;;;;;14.85;13.45;;;;;;;;;;5077657;28;20028;-55
2021/06/27 03:33:41;;;;;;;14.65;13.25;;;;;;;;;;5080412;28;20024;-52
2021/06/27 03:36:07;;;;;;;14.77;13.45;;;;;;;;;;5094118;28;20031;-56
2021/06/27 03:38:41;;;;;;;15.13;13.60;;;;;;;;;;5094638;28;20020;-51
2021/06/27 03:41:07;;;;;;;15.63;14.13;;;;;;;;;;5080375;28;20034;-53
2021/06/27 03:43:32;;;;;;;15.25;13.75;;;;;;;;;;5093745;28;20020;-53
2021/06/27 03:45:58;;;;;;;15.07;13.52;;;;;;;;;;5093662;28;20016;-55
2021/06/27 03:48:23;;;;;;;15.10;13.57;;;;;;;;;;5090835;28;20464;-55
2021/06/27 03:50:48;;;;;;;14.90;13.48;;;;;;;;;;5072450;28;20296;-55
2021/06/27 03:53:13;;;;;;;14.82;13.35;;;;;;;;;;5090537;28;20029;-52
2021/06/27 03:55:39;;;;;;;13.82;12.43;;;;;;;;;;5077255;28;20028;-54
2021/06/27 03:58:04;;;;;;;15.13;13.73;;;;;;;;;;5083508;28;20036;-54
2021/06/27 04:00:29;;;;;;;14.18;12.77;;;;;;;;;;5091558;28;20568;-55
2021/06/27 04:02:54;;;;;;;14.10;12.90;;;;;;;;;;5081851;28;20052;-51
2021/06/27 04:05:20;;;;;;;15.02;13.52;;;;;;;;;;5086547;28;20051;-55
2021/06/27 04:07:45;;;;;;;13.18;11.98;;;;;;;;;;5087566;28;20028;-54
2021/06/27 04:10:11;;;;;;;14.57;13.32;;;;;;;;;;5077619;28;20066;-55
2021/06/27 04:12:36;;;;;;;12.98;11.88;;;;;;;;;;5091731;28;20024;-51
2021/06/27 04:15:03;;;;;;;13.95;12.60;;;;;;;;;;5078376;28;20035;-51
2021/06/27 04:17:28;;;;;;;15.57;13.50;;;;;;;;;;5086891;28;20103;-53
2021/06/27 04:19:53;;;;;;;13.82;12.55;;;;;;;;;;5081437;28;20100;-54
2021/06/27 04:22:19;;;;;;;14.57;13.13;;;;;;;;;;5091760;28;20012;-55
2021/06/27 04:24:44;;;;;;;14.25;12.95;;;;;;;;;;5092382;28;20169;-54
2021/06/27 04:27:09;;;;;;;14.18;12.50;;;;;;;;;;5083374;28;20080;-54
2021/06/27 04:29:34;;;;;;;13.20;11.88;;;;;;;;;;5087109;28;20501;-52
2021/06/27 04:31:59;;;;;;;14.45;13.05;;;;;;;;;;5088533;28;20024;-53
2021/06/27 04:34:25;;;;;;;14.38;13.15;;;;;;;;;;5092512;28;20041;-53
2021/06/27 04:36:50;;;;;;;14.43;11.95;;;;;;;;;;5088408;28;20090;-52
2021/06/27 04:39:16;;;;;;;14.20;12.90;;;;;;;;;;5088855;28;20028;-55
2021/06/27 04:41:44;;;;;;;12.55;11.32;;;;;;;;;;5083307;28;20130;-53
2021/06/27 04:44:11;;;;;;;14.10;12.75;;;;;;;;;;5079050;28;20073;-55
2021/06/27 04:46:36;;;;;;;13.95;12.65;;;;;;;;;;5092829;28;20020;-54
2021/06/27 04:49:02;;;;;;;13.27;11.90;;;;;;;;;;5092859;28;20490;-53
2021/06/27 04:51:27;;;;;;;13.02;11.82;;;;;;;;;;5090992;28;20020;-55
2021/06/27 04:53:52;;;;;;;13.20;11.98;;;;;;;;;;5092441;28;20490;-54
2021/06/27 04:56:17;;;;;;;12.23;11.20;;;;;;;;;;5093014;28;20024;-54
2021/06/27 04:58:43;;;;;;;12.38;11.27;;;;;;;;;;5093196;28;20499;-55
2021/06/27 05:01:08;;;;;;;13.27;11.93;;;;;;;;;;5085329;28;20032;-54
2021/06/27 05:03:34;;;;;;;13.35;12.10;;;;;;;;;;5080255;28;20056;-56
2021/06/27 05:05:59;;;;;;;12.32;11.23;;;;;;;;;;5088655;28;20021;-52
2021/06/27 05:08:24;;;;;;;12.07;10.98;;;;;;;;;;5091186;28;20027;-54
2021/06/27 05:10:49;;;;;;;12.50;11.13;;;;;;;;;;5086522;28;20043;-54
2021/06/27 05:13:14;;;;;;;12.02;10.93;;;;;;;;;;5074214;28;20391;-55
2021/06/27 05:15:40;;;;;;;13.05;11.77;;;;;;;;;;5076322;28;20095;-54
2021/06/27 05:18:05;;;;;;;11.98;10.77;;;;;;;;;;5072909;28;20021;-54
2021/06/27 05:20:30;;;;;;;11.43;10.43;;;;;;;;;;5072435;28;20475;-54
2021/06/27 05:22:56;;;;;;;12.65;11.38;;;;;;;;;;5075611;28;20012;-54
2021/06/27 05:25:21;;;;;;;12.02;11.02;;;;;;;;;;5073042;28;20016;-50
2021/06/27 05:27:46;;;;;;;11.63;10.48;;;;;;;;;;5080306;28;20009;-53
2021/06/27 05:30:12;;;;;;;15.18;11.25;;;;;;;;;;5075185;28;20383;-53
2021/06/27 05:32:37;;;;;;;11.93;10.85;;;;;;;;;;5074764;28;20395;-54
2021/06/27 05:35:03;;;;;;;11.70;10.57;;;;;;;;;;5075220;28;20021;-53
2021/06/27 05:37:29;;;;;;;11.40;10.30;;;;;;;;;;5073999;28;20012;-53
2021/06/27 05:39:54;;;;;;;10.73;9.82;;;;;;;;;;5072275;28;20020;-52
2021/06/27 05:42:20;;;;;;;11.73;10.55;;;;;;;;;;5070560;28;20020;-52
2021/06/27 05:44:45;;;;;;;10.60;9.55;;;;;;;;;;5072794;28;20108;-54
2021/06/27 05:47:10;;;;;;;10.65;9.75;;;;;;;;;;5072200;28;20089;-52
2021/06/27 05:49:36;;;;;;;9.73;8.82;;;;;;;;;;5078133;28;20050;-54
2021/06/27 05:52:01;;;;;;;10.35;9.43;;;;;;;;;;5071231;28;20039;-50
2021/06/27 05:54:26;;;;;;;9.88;9.07;;;;;;;;;;5072822;28;20025;-56
2021/06/27 05:56:52;;;;;;;11.60;10.50;;;;;;;;;;5082969;28;20034;-54
2021/06/27 05:59:17;;;;;;;9.75;8.95;;;;;;;;;;5075993;28;20020;-56
2021/06/27 06:01:42;;;;;;;9.98;9.15;;;;;;;;;;5070162;28;20090;-55
2021/06/27 06:04:07;;;;;;;9.60;8.75;;;;;;;;;;5072281;28;20017;-53
2021/06/27 06:06:32;;;;;;;10.30;9.32;;;;;;;;;;5077685;28;20023;-50
2021/06/27 06:08:58;;;;;;;10.80;9.80;;;;;;;;;;5085124;28;20013;-56
2021/06/27 06:11:25;;;;;;;9.82;8.93;;;;;;;;;;5069174;28;20052;-50
2021/06/27 06:13:50;;;;;;;10.07;9.18;;;;;;;;;;5072740;28;20417;-52
2021/06/27 06:16:16;;;;;;;9.60;8.80;;;;;;;;;;5080342;28;20020;-54
2021/06/27 06:18:43;;;;;;;9.45;8.60;;;;;;;;;;5072025;28;20020;-54
2021/06/27 06:21:08;;;;;;;9.45;8.75;;;;;;;;;;5073363;28;20032;-52
2021/06/27 06:23:33;;;;;;;10.07;9.18;;;;;;;;;;5086758;28;20028;-53
2021/06/27 06:25:59;;;;;;;9.13;8.25;;;;;;;;;;5086640;28;20095;-52
2021/06/27 06:28:24;;;;;;;9.82;9.02;;;;;;;;;;5074265;28;20029;-54
2021/06/27 06:30:49;;;;;;;8.95;8.18;;;;;;;;;;5072599;28;20208;-55
2021/06/27 06:33:14;;;;;;;8.27;7.57;;;;;;;;;;5073830;28;20016;-55
2021/06/27 06:35:41;;;;;;;9.48;8.68;;;;;;;;;;5075861;28;20016;-54
2021/06/27 06:38:06;;;;;;;9.48;8.60;;;;;;;;;;5082848;28;20025;-55
2021/06/27 06:40:32;;;;;;;8.43;7.72;;;;;;;;;;5069200;28;20020;-54
2021/06/27 06:42:57;;;;;;;8.73;8.02;;;;;;;;;;5075270;28;20040;-55
2021/06/27 06:45:22;;;;;;;8.23;7.43;;;;;;;;;;5079513;28;20020;-55
2021/06/27 06:47:48;;;;;;;8.40;7.70;;;;;;;;;;5074127;28;20029;-55
2021/06/27 06:50:13;;;;;;;8.40;7.70;;;;;;;;;;5071111;28;20027;-53
2021/06/27 06:52:38;;;;;;;8.07;7.43;;;;;;;;;;5072534;28;20411;-57
2021/06/27 06:55:04;;;;;;;8.27;7.60;;;;;;;;;;5079091;28;20043;-56
2021/06/27 06:57:29;;;;;;;8.05;7.45;;;;;;;;;;5081099;28;20314;-52
2021/06/27 06:59:54;;;;;;;7.82;7.13;;;;;;;;;;5073913;28;20408;-51
2021/06/27 07:02:19;;;;;;;8.52;7.82;;;;;;;;;;5072888;28;20406;-50
2021/06/27 07:04:45;;;;;;;8.43;7.57;;;;;;;;;;5076645;28;20418;-55
2021/06/27 07:07:10;;;;;;;8.05;7.40;;;;;;;;;;5077611;28;20013;-52
2021/06/27 07:09:35;;;;;;;7.30;6.70;;;;;;;;;;5078254;28;20099;-55
2021/06/27 07:12:00;;;;;;;7.25;6.38;;;;;;;;;;5076275;28;20016;-56
2021/06/27 07:14:26;;;;;;;6.47;5.97;;;;;;;;;;5075538;28;20032;-55
2021/06/27 07:16:51;;;;;;;6.78;6.20;;;;;;;;;;5075260;28;20024;-51
2021/06/27 07:19:16;;;;;;;7.22;6.63;;;;;;;;;;5075496;28;20566;-52
2021/06/27 07:21:43;;;;;;;7.43;5.93;;;;;;;;;;5075509;28;20027;-55
2021/06/27 07:24:09;;;;;;;5.70;5.15;;;;;;;;;;5077145;28;20024;-55
2021/06/27 07:26:34;;;;;;;4.90;4.50;;;;;;;;;;5078378;28;20092;-51
2021/06/27 07:28:59;;;;;;;8.45;5.32;;;;;;;;;;5078996;28;20021;-52
2021/06/27 07:31:24;;;;;;;5.47;5.00;;;;;;;;;;5077197;28;20024;-51
2021/06/27 07:33:50;;;;;;;4.95;4.55;;;;;;;;;;5076669;28;20590;-56
2021/06/27 07:36:15;;;;;;;4.85;4.50;;;;;;;;;;5078435;28;20016;-53
2021/06/27 07:38:41;;;;;;;5.30;4.60;;;;;;;;;;5084253;28;20037;-55
2021/06/27 07:41:06;;;;;;;5.30;4.97;;;;;;;;;;5075801;28;20025;-55
2021/06/27 07:43:33;;;;;;;4.93;4.63;;;;;;;;;;5074843;28;20095;-55
2021/06/27 07:45:58;;;;;;;4.38;4.03;;;;;;;;;;5077679;28;20339;-54
2021/06/27 07:48:23;;;;;;;4.00;3.80;;;;;;;;;;5084888;28;20013;-54
2021/06/27 07:50:49;;;;;;;4.33;3.90;;;;;;;;;;5071959;28;20428;-52
2021/06/27 07:53:14;;;;;;;4.68;4.32;;;;;;;;;;5076162;28;20294;-55
2021/06/27 07:55:40;;;;;;;4.80;4.40;;;;;;;;;;5077260;28;20028;-54
2021/06/27 07:58:05;;;;;;;4.07;3.80;;;;;;;;;;5073706;28;20086;-54
2021/06/27 08:00:30;;;;;;;3.63;3.40;;;;;;;;;;5075751;28;20024;-53
2021/06/27 08:02:59;;;;;;;3.95;3.65;;;;;;;;;;5076893;28;20107;-53
2021/06/27 08:05:26;;;;;;;3.28;2.97;;;;;;;;;;5077044;28;20106;-53
2021/06/27 08:07:51;;;;;;;3.60;3.30;;;;;;;;;;5078536;28;20016;-52
2021/06/27 08:10:17;;;;;;;3.80;3.50;;;;;;;;;;5091316;28;20024;-50
2021/06/27 08:12:42;;;;;;;3.22;2.72;;;;;;;;;;5085878;28;20020;-55
2021/06/27 08:15:08;;;;;;;3.03;2.70;;;;;;;;;;5080758;28;20060;-55
2021/06/27 08:17:34;;;;;;;2.30;2.10;;;;;;;;;;5084914;28;20074;-55
2021/06/27 08:19:59;;;;;;;1.88;1.73;;;;;;;;;;5077124;28;20025;-53
2021/06/27 08:22:24;;;;;;;2.63;2.20;;;;;;;;;;5079719;28;20052;-54
2021/06/27 08:24:50;;;;;;;2.60;2.40;;;;;;;;;;5093760;28;20008;-52
2021/06/27 08:27:15;;;;;;;2.45;2.25;;;;;;;;;;5090850;28;20020;-52
2021/06/27 08:29:40;;;;;;;1.77;1.67;;;;;;;;;;5073723;28;20013;-53
2021/06/27 08:32:06;;;;;;;2.20;2.00;;;;;;;;;;5075470;28;20029;-54
2021/06/27 08:34:31;;;;;;;2.40;2.20;;;;;;;;;;5084511;28;20031;-55
2021/06/27 08:36:56;;;;;;;2.78;2.13;;;;;;;;;;5083466;28;20016;-51
2021/06/27 08:39:21;;;;;;;2.17;1.65;;;;;;;;;;5089715;28;20085;-56
2021/06/27 08:41:47;;;;;;;1.95;1.85;;;;;;;;;;5090417;28;20055;-52
2021/06/27 08:44:13;;;;;;;1.90;1.80;;;;;;;;;;5080246;28;20074;-52
2021/06/27 08:46:40;;;;;;;2.15;2.05;;;;;;;;;;5078060;28;20059;-56
2021/06/27 08:49:05;;;;;;;1.92;1.83;;;;;;;;;;5081918;28;20403;-53
2021/06/27 08:51:37;;;;;;;2.22;2.00;;;;;;;;;;5080646;28;20032;-56
2021/06/27 08:54:02;;;;;;;1.77;1.60;;;;;;;;;;5093182;28;20087;-55
2021/06/27 08:56:27;;;;;;;2.03;1.92;;;;;;;;;;5090047;28;20585;-56
2021/06/27 08:58:52;;;;;;;2.23;2.07;;;;;;;;;;5092371;28;20016;-56
2021/06/27 09:01:19;;;;;;;2.30;1.83;;;;;;;;;;5080732;28;20290;-53
2021/06/27 09:03:45;;;;;;;2.00;1.90;;;;;;;;;;5089583;28;20274;-56
2021/06/27 09:06:11;;;;;;;1.95;1.75;;;;;;;;;;5084585;28;20069;-52
2021/06/27 09:08:36;;;;;;;1.92;1.83;;;;;;;;;;5082959;28;20024;-56
2021/06/27 09:11:11;;;;;;;2.25;2.15;;;;;;;;;;5082023;28;20433;-53
2021/06/27 09:13:36;;;;;;;;;;;;;;;;;;5082595;28;20024;-55
2021/06/27 09:16:01;;;;;;;;;;;;;;;;;;5078733;28;19908;-56
2021/06/27 09:18:28;;;;;;;2.33;2.13;;;;;;;;;;5087204;28;19939;-53
2021/06/27 09:20:57;;;;;;;2.08;1.98;;;;;;;;;;5070816;28;20021;-54
2021/06/27 09:23:34;;;;;;;2.67;2.35;;;;;;;;;;5091992;28;20015;-55
2021/06/27 09:25:59;;;;;;;2.47;2.08;;;;;;;;;;5089551;28;20016;-55
2021/06/27 09:28:38;;;;;;;2.13;1.92;;;;;;;;;;5076062;28;20489;-56
2021/06/27 09:31:03;;;;;;;3.08;2.45;;;;;;;;;;5080612;28;20082;-55
2021/06/27 09:33:30;;;;;;;2.23;2.00;;;;;;;;;;5092237;28;20277;-55
2021/06/27 09:35:56;;;;;;;1.95;1.85;;;;;;;;;;5092177;28;20270;-55
2021/06/27 09:38:27;;;;;;;1.80;1.70;;;;;;;;;;5092054;28;20088;-53
2021/06/27 09:40:54;;;;;;;2.05;1.80;;;;;;;;;;5077564;28;20737;-56
2021/06/27 09:43:20;;;;;;;5.93;2.20;;;;;;;;;;5082380;28;20114;-54
2021/06/27 09:45:45;;;;;;;2.60;2.42;;;;;;;;;;5074096;28;20048;-54
2021/06/27 09:48:11;;;;;;;3.35;2.38;;;;;;;;;;5088056;28;20454;-54
2021/06/27 09:50:36;;;;;;;2.72;1.98;;;;;;;;;;5082522;28;20024;-52
2021/06/27 09:53:01;;;;;;;2.78;2.38;;;;;;;;;;5085721;28;20162;-53
2021/06/27 09:55:26;;;;;;;2.72;2.13;;;;;;;;;;5091877;28;20157;-55
2021/06/27 09:58:11;;;;;;;2.40;2.20;;;;;;;;;;5091193;28;20028;-55
2021/06/27 10:00:39;;;;;;;;;;;;;;;;;;5087721;28;20854;-54
2021/06/27 10:03:05;;;;;;;2.17;2.08;;;;;;;;;;5077122;28;19920;-55
2021/06/27 10:05:30;;;;;;;2.78;2.28;;;;;;;;;;5091202;28;20012;-56
2021/06/27 10:07:56;;;;;;;3.42;3.05;;;;;;;;;;5091490;28;20032;-54
2021/06/27 10:10:22;;;;;;;3.47;2.35;;;;;;;;;;5088831;28;20025;-55
2021/06/27 10:12:47;;;;;;;3.05;2.58;;;;;;;;;;5090574;28;20024;-57
2021/06/27 10:15:14;;;;;;;2.92;2.72;;;;;;;;;;5092272;28;20047;-57
2021/06/27 10:17:41;;;;;;;2.83;2.63;;;;;;;;;;5092136;28;20062;-57
2021/06/27 10:20:07;;;;;;;2.80;2.60;;;;;;;;;;5090241;28;20429;-55
2021/06/27 10:22:32;;;;;;;2.67;2.50;;;;;;;;;;5087090;28;20017;-54
2021/06/27 10:24:57;;;;;;;2.95;2.67;;;;;;;;;;5079358;28;20021;-55
2021/06/27 10:27:27;;;;;;;3.28;2.92;;;;;;;;;;5078276;28;20020;-57
2021/06/27 10:29:53;;;;;;;2.80;2.60;;;;;;;;;;5079589;28;20801;-56
2021/06/27 10:32:20;;;;;;;2.30;2.20;;;;;;;;;;5068872;28;20055;-56
2021/06/27 10:34:45;;;;;;;3.08;2.80;;;;;;;;;;5077282;28;20502;-56
2021/06/27 10:37:13;;;;;;;2.38;2.17;;;;;;;;;;5094361;28;20028;-54
2021/06/27 10:39:54;;;;;;;2.80;2.47;;;;;;;;;;5090422;28;20408;-55
2021/06/27 10:42:19;;;;;;;2.90;2.50;;;;;;;;;;5082095;28;20016;-57
2021/06/27 10:44:47;;;;;;;2.50;2.40;;;;;;;;;;5079833;28;20031;-54
2021/06/27 10:47:28;;;;;;;2.63;2.42;;;;;;;;;;5080593;28;20021;-56
2021/06/27 10:49:53;;;;;;;2.50;2.30;;;;;;;;;;5088621;28;20027;-57
2021/06/27 10:52:19;;;;;;;2.45;2.25;;;;;;;;;;5077046;28;20016;-54
2021/06/27 10:55:05;;;;;;;2.15;2.05;;;;;;;;;;5091226;28;20107;-55
2021/06/27 10:57:50;;;;;;;2.53;2.33;;;;;;;;;;5080753;28;20048;-55
2021/06/27 11:00:15;;;;;;;2.65;1.98;;;;;;;;;;5080038;28;20395;-56
2021/06/27 11:02:41;;;;;;;2.00;1.90;;;;;;;;;;5092745;28;20036;-54
2021/06/27 11:05:25;;;;;;;2.00;1.77;;;;;;;;;;5087375;28;20269;-55
2021/06/27 11:07:50;;;;;;;2.10;2.00;;;;;;;;;;5079521;28;20078;-55
2021/06/27 11:10:19;;;;;;;2.13;2.00;;;;;;;;;;5080912;28;20645;-54
2021/06/27 11:13:07;;;;;;;1.88;1.77;;;;;;;;;;5092477;28;20262;-54
2021/06/27 11:15:36;;;;;;;2.33;2.08;;;;;;;;;;5079687;28;20482;-56
2021/06/27 11:18:06;;;;;;;2.33;1.90;;;;;;;;;;5091447;28;20031;-56
2021/06/27 11:20:51;;;;;;;2.25;2.05;;;;;;;;;;5091961;28;20042;-54
2021/06/27 11:23:16;;;;;;;2.92;2.00;;;;;;;;;;5069145;28;21220;-55
2021/06/27 11:25:43;;;;;;;1.50;1.40;;;;;;;;;;5085160;28;20034;-54
2021/06/27 11:28:21;;;;;;;1.80;1.70;;;;;;;;;;5082629;28;20365;-56
2021/06/27 11:31:07;;;;;;;2.03;1.92;;;;;;;;;;5076805;28;20303;-53
2021/06/27 11:33:32;;;;;;;1.92;1.77;;;;;;;;;;5074810;28;20145;-53
2021/06/27 11:35:58;;;;;;;1.63;1.53;;;;;;;;;;5082704;28;20106;-56
2021/06/27 11:38:37;;;;;;;1.90;1.80;;;;;;;;;;5086363;28;20174;-54
2021/06/27 11:41:03;;;;;;;1.60;1.50;;;;;;;;;;5076782;28;20024;-54
2021/06/27 11:43:47;;;;;;;1.98;1.50;;;;;;;;;;5081946;28;20021;-55
2021/06/27 11:46:33;;;;;;;1.98;1.80;;;;;;;;;;5088431;28;20454;-55
2021/06/27 11:48:59;;;;;;;1.65;1.55;;;;;;;;;;5072555;28;20039;-56
2021/06/27 11:51:35;;;;;;;1.65;1.55;;;;;;;;;;5079696;28;20021;-54
2021/06/27 11:54:01;;;;;;;1.80;1.70;;;;;;;;;;5074930;28;20506;-55
2021/06/27 11:56:26;;;;;;;1.33;1.20;;;;;;;;;;5087732;28;20455;-54
2021/06/27 11:59:08;;;;;;;2.30;2.10;;;;;;;;;;5084853;28;20024;-55
2021/06/27 12:01:33;;;;;;;2.53;1.88;;;;;;;;;;5082934;28;20293;-56
2021/06/27 12:03:58;;;;;;;2.40;1.87;;;;;;;;;;5090108;28;20025;-55
2021/06/27 12:06:33;;;;;;;1.70;1.60;;;;;;;;;;5081167;28;20031;-55
2021/06/27 12:08:58;;;;;;;1.42;1.38;;;;;;;;;;5091189;28;20036;-56
2021/06/27 12:11:23;;;;;;;1.80;1.53;;;;;;;;;;5082429;28;20095;-56
2021/06/27 12:13:54;;;;;;;1.63;1.53;;;;;;;;;;5087890;28;20012;-56
2021/06/27 12:16:19;;;;;;;1.55;1.45;;;;;;;;;;5088675;28;20475;-54
2021/06/27 12:18:44;;;;;;;1.50;1.40;;;;;;;;;;5085076;28;20035;-55
2021/06/27 12:21:13;;;;;;;1.57;1.47;;;;;;;;;;5081676;28;20016;-54
2021/06/27 12:23:40;;;;;;;2.22;1.48;;;;;;;;;;5093798;28;20020;-54
2021/06/27 12:26:06;;;;;;;2.80;1.52;;;;;;;;;;5084321;28;20017;-55
2021/06/27 12:28:39;;;;;;;1.70;1.42;;;;;;;;;;5076203;28;20044;-55
2021/06/27 12:31:08;;;;;;;1.53;1.23;;;;;;;;;;5075175;28;20020;-55
2021/06/27 12:33:37;;;;;;;1.35;1.30;;;;;;;;;;5087394;28;20020;-55
2021/06/27 12:36:23;;;;;;;1.60;1.50;;;;;;;;;;5085222;28;20028;-53
2021/06/27 12:38:49;;;;;;;2.63;1.33;;;;;;;;;;5083920;28;20036;-53
2021/06/27 12:41:38;;;;;;;1.80;1.70;;;;;;;;;;5090019;28;20027;-55
2021/06/27 12:44:09;;;;;;;1.75;1.65;;;;;;;;;;5073384;28;20486;-56
2021/06/27 12:46:48;;;;;;;1.55;1.15;;;;;;;;;;5083930;28;20036;-56
2021/06/27 12:49:15;;;;;;;1.33;1.23;;;;;;;;;;5080000;28;20020;-57
2021/06/27 12:51:45;;;;;;;2.15;1.40;;;;;;;;;;5077897;28;20027;-53
2021/06/27 12:54:13;;;;;;;1.48;1.40;;;;;;;;;;5086876;28;20181;-52
2021/06/27 12:56:38;;;;;;;1.45;1.45;;;;;;;;;;5092579;28;20084;-55
2021/06/27 12:59:06;;;;;;;2.15;2.05;;;;;;;;;;5084471;28;20019;-55
2021/06/27 13:01:51;;;;;;;1.50;1.40;;;;;;;;;;5081440;28;20492;-56
2021/06/27 13:04:22;;;;;;;2.25;1.58;;;;;;;;;;5088713;28;20016;-56
2021/06/27 13:06:54;;;;;;;1.33;1.27;;;;;;;;;;5091443;28;20027;-55
2021/06/27 13:09:19;;;;;;;1.48;1.13;;;;;;;;;;5091869;28;20016;-55
2021/06/27 13:12:03;;;;;;;2.37;1.23;;;;;;;;;;5080693;28;20032;-54
2021/06/27 13:14:28;;;;;;;1.83;1.73;;;;;;;;;;5079550;28;20297;-55
2021/06/27 13:17:00;;;;;;;1.23;1.13;;;;;;;;;;5085891;28;20435;-55
2021/06/27 13:19:26;;;;;;;1.42;1.42;;;;;;;;;;5075651;28;20073;-55
2021/06/27 13:22:06;;;;;;;1.23;1.23;;;;;;;;;;5077114;28;20430;-54
2021/06/27 13:24:31;;;;;;;1.23;1.00;;;;;;;;;;5074885;28;20035;-56
2021/06/27 13:27:09;;;;;;;1.23;1.10;;;;;;;;;;5086049;28;20375;-55
2021/06/27 13:29:34;;;;;;;0.98;0.98;;;;;;;;;;5088443;28;20021;-55
2021/06/27 13:31:59;;;;;;;1.23;1.00;;;;;;;;;;5078175;28;20183;-53
2021/06/27 13:34:33;;;;;;;1.10;1.00;;;;;;;;;;5089381;28;20024;-56
2021/06/27 13:36:58;;;;;;;1.02;1.02;;;;;;;;;;5081373;28;20368;-54
2021/06/27 13:39:26;;;;;;;1.00;1.00;;;;;;;;;;5091856;28;20486;-55
2021/06/27 13:41:51;;;;;;;1.58;1.20;;;;;;;;;;5083597;28;20287;-56
2021/06/27 13:44:16;;;;;;;1.10;1.10;;;;;;;;;;5076675;28;20138;-55
2021/06/27 13:46:41;;;;;;;1.30;1.20;;;;;;;;;;5088335;28;20027;-55
2021/06/27 13:49:07;;;;;;;1.43;1.00;;;;;;;;;;5091650;28;20293;-55
2021/06/27 13:51:32;;;;;;;1.13;0.97;;;;;;;;;;5085823;28;20378;-55
2021/06/27 13:53:57;;;;;;;1.00;0.90;;;;;;;;;;5083331;28;20584;-54
2021/06/27 13:56:23;;;;;;;1.00;1.00;;;;;;;;;;5082028;28;20285;-55
2021/06/27 13:58:50;;;;;;;0.80;0.80;;;;;;;;;;5083808;28;20814;-52
2021/06/27 14:01:26;;;;;;;1.10;1.10;;;;;;;;;;5079303;28;20070;-54
2021/06/27 14:03:51;;;;;;;2.03;1.20;;;;;;;;;;5081659;28;20064;-55
2021/06/27 14:06:17;;;;;;;1.20;0.90;;;;;;;;;;5081773;28;20085;-55
2021/06/27 14:08:45;;;;;;;1.10;1.00;;;;;;;;;;5084228;28;20020;-54
2021/06/27 14:11:10;;;;;;;1.10;1.08;;;;;;;;;;5084560;28;20493;-55
2021/06/27 14:13:39;;;;;;;1.00;1.00;;;;;;;;;;5082011;28;20058;-54
2021/06/27 14:16:08;;;;;;;1.70;1.20;;;;;;;;;;5086426;28;20039;-55
2021/06/27 14:18:34;;;;;;;1.23;1.13;;;;;;;;;;5087498;28;20111;-55
2021/06/27 14:20:59;;;;;;;1.02;1.00;;;;;;;;;;5080210;28;20547;-55
2021/06/27 14:23:24;;;;;;;1.13;1.10;;;;;;;;;;5093087;28;20024;-55
2021/06/27 14:25:50;;;;;;;1.03;1.03;;;;;;;;;;5093679;28;20254;-56
2021/06/27 14:28:15;;;;;;;0.80;0.80;;;;;;;;;;5094437;28;20024;-55
2021/06/27 14:30:42;;;;;;;0.80;0.80;;;;;;;;;;5087239;28;20028;-55
2021/06/27 14:33:07;;;;;;;1.15;0.98;;;;;;;;;;5090958;28;20031;-56